createdAt,value
2022-12-18T00:01:36.486Z,101749.94
2022-12-18T00:04:07.031Z,101755.03
2022-12-18T00:06:34.486Z,101756.69
2022-12-18T00:09:02.528Z,101767.28
2022-12-18T00:11:31.206Z,101766.22
2022-12-18T00:13:59.823Z,101767.84
2022-12-18T00:16:28.609Z,101772.69
2022-12-18T00:19:00.999Z,101783.22
2022-12-18T00:21:29.928Z,101781.81
2022-12-18T00:23:57.016Z,101791.84
2022-12-18T00:26:26.164Z,101801.88
2022-12-18T00:28:53.327Z,101804.94
2022-12-18T00:31:22.537Z,101811.31
2022-12-18T00:33:50.011Z,101824.75
2022-12-18T00:36:22.592Z,101823.91
2022-12-18T00:38:49.327Z,101827.69
2022-12-18T00:41:39.606Z,101832.69
2022-12-18T00:44:08.146Z,101830.31
2022-12-18T00:46:34.833Z,101830.66
2022-12-18T00:49:01.503Z,101831.41
2022-12-18T00:51:28.214Z,101826.81
2022-12-18T00:53:55.074Z,101846.06
2022-12-18T00:56:24.405Z,101845.97
2022-12-18T00:58:51.406Z,101844.31
2022-12-18T01:01:18.517Z,101854.19
2022-12-18T01:03:46.272Z,101850.56
2022-12-18T01:06:14.776Z,101854.13
2022-12-18T01:08:41.425Z,101851.50
2022-12-18T01:11:09.890Z,101853.16
2022-12-18T01:13:40.879Z,101864.69
2022-12-18T01:16:08.255Z,101865.81
2022-12-18T01:18:34.994Z,101872.34
2022-12-18T01:21:01.643Z,101868.56
2022-12-18T01:23:28.249Z,101866.09
2022-12-18T01:25:54.839Z,101862.97
2022-12-18T01:28:21.579Z,101867.59
2022-12-18T01:30:50.553Z,101863.81
2022-12-18T01:33:17.147Z,101869.41
2022-12-18T01:35:44.087Z,101878.63
2022-12-18T01:38:10.740Z,101873.38
2022-12-18T01:40:37.826Z,101880.34
2022-12-18T01:43:04.528Z,101872.03
2022-12-18T01:45:32.909Z,101882.72
2022-12-18T01:48:07.660Z,101889.31
2022-12-18T01:50:41.229Z,101890.41
2022-12-18T01:53:23.628Z,101885.22
2022-12-18T01:55:56.112Z,101894.81
2022-12-18T01:58:36.701Z,101907.41
2022-12-18T02:01:03.571Z,101895.91
2022-12-18T02:03:30.204Z,101895.06
2022-12-18T02:06:20.041Z,101905.78
2022-12-18T02:09:10.347Z,101904.03
2022-12-18T02:12:00.677Z,101901.81
2022-12-18T02:15:09.563Z,101897.75
2022-12-18T02:18:06.758Z,101905.66
2022-12-18T02:20:39.713Z,101903.03
2022-12-18T02:23:33.162Z,101919.53
2022-12-18T02:26:30.326Z,101925.69
2022-12-18T02:29:40.310Z,101924.13
2022-12-18T02:32:14.251Z,101923.22
2022-12-18T02:34:41.635Z,101929.75
2022-12-18T02:37:16.866Z,101929.91
2022-12-18T02:39:47.158Z,101940.25
2022-12-18T02:42:14.170Z,101947.63
2022-12-18T02:44:48.860Z,101948.97
2022-12-18T02:47:18.915Z,101948.22
2022-12-18T02:50:06.214Z,101945.37
2022-12-18T02:52:52.414Z,101942.50
2022-12-18T02:56:10.301Z,101945.94
2022-12-18T02:58:45.923Z,101951.31
2022-12-18T03:01:18.799Z,101964.09
2022-12-18T03:04:01.407Z,101969.28
2022-12-18T03:06:34.410Z,101972.81
2022-12-18T03:09:07.083Z,101981.25
2022-12-18T03:11:56.782Z,101975.22
2022-12-18T03:14:25.599Z,101974.25
2022-12-18T03:16:55.818Z,101981.81
2022-12-18T03:19:25.249Z,101977.56
2022-12-18T03:21:56.806Z,101984.59
2022-12-18T03:24:25.477Z,101986.47
2022-12-18T03:26:58.322Z,101981.72
2022-12-18T03:29:37.267Z,101990.88
2022-12-18T03:32:10.659Z,101998.06
2022-12-18T03:34:39.789Z,102002.59
2022-12-18T03:37:07.323Z,102003.88
2022-12-18T03:39:35.789Z,102013.78
2022-12-18T03:42:18.433Z,102015.06
2022-12-18T03:45:12.093Z,102005.44
2022-12-18T03:48:17.496Z,102010.63
2022-12-18T03:50:50.837Z,102012.47
2022-12-18T03:53:48.707Z,102015.06
2022-12-18T03:56:17.707Z,102024.03
2022-12-18T03:58:45.440Z,102022.75
2022-12-18T04:01:16.161Z,102025.53
2022-12-18T04:03:45.227Z,102017.31
2022-12-18T04:06:12.852Z,102020.72
2022-12-18T04:08:40.992Z,102029.13
2022-12-18T04:11:07.903Z,102037.84
2022-12-18T04:13:37.872Z,102032.25
2022-12-18T04:16:05.477Z,102038.56
2022-12-18T04:18:32.165Z,102040.13
2022-12-18T04:20:58.906Z,102029.87
2022-12-18T04:23:25.567Z,102026.44
2022-12-18T04:25:52.234Z,102032.97
2022-12-18T04:28:18.947Z,102044.19
2022-12-18T04:30:48.913Z,102039.75
2022-12-18T04:33:19.101Z,102043.75
2022-12-18T04:35:46.118Z,102043.34
2022-12-18T04:38:12.859Z,102044.28
2022-12-18T04:40:39.824Z,102049.19
2022-12-18T04:43:08.747Z,102049.25
2022-12-18T04:45:35.482Z,102058.28
2022-12-18T04:48:03.593Z,102068.16
2022-12-18T04:50:31.237Z,102075.81
2022-12-18T04:52:58.542Z,102071.75
2022-12-18T04:55:26.880Z,102069.53
2022-12-18T04:57:53.799Z,102084.66
2022-12-18T05:00:21.163Z,102081.94
2022-12-18T05:02:48.059Z,102084.13
2022-12-18T05:05:14.922Z,102093.84
2022-12-18T05:07:42.034Z,102092.81
2022-12-18T05:10:09.463Z,102089.84
2022-12-18T05:12:57.440Z,102101.50
2022-12-18T05:15:24.165Z,102102.84
2022-12-18T05:17:50.825Z,102116.91
2022-12-18T05:20:19.032Z,102111.94
2022-12-18T05:22:46.309Z,102106.66
2022-12-18T05:25:13.048Z,102112.41
2022-12-18T05:27:39.742Z,102111.06
2022-12-18T05:30:07.031Z,102115.78
2022-12-18T05:32:33.809Z,102123.38
2022-12-18T05:35:00.530Z,102125.22
2022-12-18T05:37:27.267Z,102128.22
2022-12-18T05:39:54.025Z,102142.16
2022-12-18T05:42:20.711Z,102138.34
2022-12-18T05:44:47.372Z,102140.72
2022-12-18T05:47:14.211Z,102137.44
2022-12-18T05:49:40.873Z,102147.09
2022-12-18T05:52:07.605Z,102138.06
2022-12-18T05:54:34.548Z,102140.19
2022-12-18T05:57:01.194Z,102145.47
2022-12-18T05:59:27.871Z,102147.06
2022-12-18T06:01:54.651Z,102142.00
2022-12-18T06:04:21.403Z,102155.13
2022-12-18T06:06:48.054Z,102154.12
2022-12-18T06:09:14.782Z,102151.28
2022-12-18T06:11:41.539Z,102148.81
2022-12-18T06:14:08.474Z,102160.13
2022-12-18T06:16:35.145Z,102162.81
2022-12-18T06:19:04.718Z,102167.81
2022-12-18T06:21:32.432Z,102165.72
2022-12-18T06:24:01.019Z,102164.53
2022-12-18T06:26:28.479Z,102173.91
2022-12-18T06:28:55.377Z,102175.84
2022-12-18T06:31:22.240Z,102191.75
2022-12-18T06:33:48.959Z,102188.38
2022-12-18T06:36:15.806Z,102201.62
2022-12-18T06:38:44.255Z,102197.28
2022-12-18T06:41:15.670Z,102203.59
2022-12-18T06:43:43.341Z,102214.47
2022-12-18T06:46:11.171Z,102219.91
2022-12-18T06:48:38.123Z,102211.31
2022-12-18T06:51:05.124Z,102221.25
2022-12-18T06:53:35.174Z,102216.13
2022-12-18T06:56:10.365Z,102221.25
2022-12-18T06:58:38.126Z,102225.47
2022-12-18T07:01:07.272Z,102216.44
2022-12-18T07:03:36.524Z,102228.00
2022-12-18T07:06:04.644Z,102228.00
2022-12-18T07:08:32.679Z,102242.19
2022-12-18T07:11:20.354Z,102251.53
2022-12-18T07:13:47.501Z,102247.69
2022-12-18T07:16:25.349Z,102248.22
2022-12-18T07:18:55.831Z,102250.19
2022-12-18T07:21:26.938Z,102262.00
2022-12-18T07:23:53.763Z,102269.41
2022-12-18T07:26:22.468Z,102269.44
2022-12-18T07:28:49.875Z,102270.78
2022-12-18T07:31:22.115Z,102276.84
2022-12-18T07:33:52.685Z,102276.75
2022-12-18T07:36:29.955Z,102288.63
2022-12-18T07:38:59.412Z,102290.97
2022-12-18T07:41:27.345Z,102294.16
2022-12-18T07:43:54.549Z,102304.25
2022-12-18T07:46:26.127Z,102297.22
2022-12-18T07:49:09.075Z,102299.59
2022-12-18T07:51:36.292Z,102298.50
2022-12-18T07:54:03.529Z,102304.66
2022-12-18T07:56:53.662Z,102313.56
2022-12-18T07:59:20.287Z,102318.13
2022-12-18T08:01:47.031Z,102315.25
2022-12-18T08:04:13.773Z,102323.00
2022-12-18T08:06:43.671Z,102326.38
2022-12-18T08:09:16.610Z,102328.03
2022-12-18T08:11:43.616Z,102334.00
2022-12-18T08:14:10.886Z,102333.84
2022-12-18T08:16:37.609Z,102332.13
2022-12-18T08:19:04.611Z,102337.50
2022-12-18T08:21:32.441Z,102340.91
2022-12-18T08:24:01.599Z,102338.06
2022-12-18T08:26:30.243Z,102348.03
2022-12-18T08:28:58.663Z,102350.91
2022-12-18T08:31:26.911Z,102354.44
2022-12-18T08:33:54.933Z,102350.34
2022-12-18T08:36:25.440Z,102349.00
2022-12-18T08:38:53.221Z,102354.06
2022-12-18T08:41:19.825Z,102363.44
2022-12-18T08:44:04.892Z,102361.25
2022-12-18T08:46:49.511Z,102362.91
2022-12-18T08:49:16.170Z,102356.47
2022-12-18T08:51:42.769Z,102362.03
2022-12-18T08:54:17.330Z,102357.56
2022-12-18T08:56:46.233Z,102358.78
2022-12-18T08:59:19.138Z,102360.66
2022-12-18T09:01:47.568Z,102360.25
2022-12-18T09:04:14.979Z,102355.63
2022-12-18T09:06:41.623Z,102369.41
2022-12-18T09:09:08.413Z,102369.94
2022-12-18T09:11:35.004Z,102365.44
2022-12-18T09:14:02.600Z,102367.16
2022-12-18T09:16:32.361Z,102371.94
2022-12-18T09:19:02.761Z,102375.16
2022-12-18T09:21:34.277Z,102381.16
2022-12-18T09:24:03.887Z,102382.06
2022-12-18T09:26:31.619Z,102378.41
2022-12-18T09:28:58.339Z,102379.22
2022-12-18T09:31:25.707Z,102369.13
2022-12-18T09:33:52.380Z,102378.16
2022-12-18T09:36:20.473Z,102377.34
2022-12-18T09:38:48.395Z,102373.13
2022-12-18T09:41:39.627Z,102373.06
2022-12-18T09:44:45.645Z,102371.72
2022-12-18T09:47:19.021Z,102377.97
2022-12-18T09:49:48.387Z,102369.13
2022-12-18T09:52:28.040Z,102383.81
2022-12-18T09:55:01.395Z,102375.91
2022-12-18T09:57:28.047Z,102374.47
2022-12-18T10:00:00.099Z,102384.66
2022-12-18T10:02:28.008Z,102373.41
2022-12-18T10:05:04.405Z,102366.81
2022-12-18T10:08:11.421Z,102365.69
2022-12-18T10:10:58.545Z,102364.25
2022-12-18T10:13:40.487Z,102364.53
2022-12-18T10:16:33.357Z,102357.22
2022-12-18T10:18:59.926Z,102357.56
2022-12-18T10:21:35.082Z,102365.09
2022-12-18T10:24:12.960Z,102362.44
2022-12-18T10:26:40.084Z,102366.66
2022-12-18T10:29:13.270Z,102355.75
2022-12-18T10:31:40.077Z,102358.72
2022-12-18T10:34:15.798Z,102360.16
2022-12-18T10:36:43.253Z,102357.75
2022-12-18T10:39:23.359Z,102360.12
2022-12-18T10:41:51.314Z,102352.47
2022-12-18T10:44:23.739Z,102359.66
2022-12-18T10:47:10.229Z,102352.66
2022-12-18T10:49:48.226Z,102349.22
2022-12-18T10:52:23.072Z,102362.44
2022-12-18T10:54:51.566Z,102358.56
2022-12-18T10:57:32.817Z,102356.06
2022-12-18T11:00:02.393Z,102355.19
2022-12-18T11:02:36.516Z,102358.34
2022-12-18T11:05:06.266Z,102357.72
2022-12-18T11:07:51.117Z,102361.72
2022-12-18T11:10:19.791Z,102356.13
2022-12-18T11:12:46.961Z,102359.50
2022-12-18T11:15:23.783Z,102352.44
2022-12-18T11:17:52.054Z,102347.47
2022-12-18T11:20:33.846Z,102348.28
2022-12-18T11:23:13.938Z,102350.47
2022-12-18T11:25:51.552Z,102339.03
2022-12-18T11:28:42.089Z,102347.03
2022-12-18T11:31:25.188Z,102340.22
2022-12-18T11:34:27.652Z,102343.72
2022-12-18T11:36:48.427Z,102341.66
2022-12-18T11:39:22.439Z,102337.84
2022-12-18T11:42:12.914Z,102339.59
2022-12-18T11:44:44.053Z,102344.31
2022-12-18T11:47:33.519Z,102338.37
2022-12-18T11:50:02.605Z,102332.78
2022-12-18T11:52:40.080Z,102343.44
2022-12-18T11:55:22.598Z,102341.66
2022-12-18T11:58:14.443Z,102334.75
2022-12-18T12:01:13.146Z,102326.44
2022-12-18T12:03:51.865Z,102329.78
2022-12-18T12:06:37.362Z,102330.28
2022-12-18T12:09:15.732Z,102330.50
2022-12-18T12:11:54.122Z,102324.72
2022-12-18T12:14:32.146Z,102327.03
2022-12-18T12:17:19.348Z,102328.28
2022-12-18T12:19:51.077Z,102318.94
2022-12-18T12:22:43.699Z,102335.97
2022-12-18T12:25:30.254Z,102332.22
2022-12-18T12:28:44.256Z,102321.56
2022-12-18T12:31:35.323Z,102323.56
2022-12-18T12:34:08.271Z,102328.06
2022-12-18T12:36:52.930Z,102328.00
2022-12-18T12:39:24.224Z,102333.38
2022-12-18T12:42:09.510Z,102331.53
2022-12-18T12:44:44.080Z,102333.44
2022-12-18T12:47:28.612Z,102338.41
2022-12-18T12:49:59.215Z,102347.09
2022-12-18T12:52:34.590Z,102337.72
2022-12-18T12:55:14.711Z,102349.88
2022-12-18T12:57:49.013Z,102355.72
2022-12-18T13:00:20.591Z,102352.16
2022-12-18T13:03:12.795Z,102355.59
2022-12-18T13:05:50.596Z,102366.41
2022-12-18T13:08:56.258Z,102363.00
2022-12-18T13:11:59.741Z,102369.44
2022-12-18T13:14:42.682Z,102367.06
2022-12-18T13:17:22.750Z,102362.94
2022-12-18T13:19:51.725Z,102373.41
2022-12-18T13:22:34.380Z,102379.34
2022-12-18T13:25:01.363Z,102376.41
2022-12-18T13:28:14.487Z,102385.91
2022-12-18T13:30:43.946Z,102385.09
2022-12-18T13:33:19.445Z,102383.09
2022-12-18T13:35:49.107Z,102391.47
2022-12-18T13:39:34.507Z,102389.09
2022-12-18T13:42:08.543Z,102391.84
2022-12-18T13:44:40.849Z,102398.63
2022-12-18T13:47:26.511Z,102408.00
2022-12-18T13:49:53.963Z,102408.63
2022-12-18T13:52:24.048Z,102410.47
2022-12-18T13:55:03.286Z,102407.25
2022-12-18T13:57:41.814Z,102412.41
2022-12-18T14:00:25.806Z,102405.63
2022-12-18T14:02:53.412Z,102408.09
2022-12-18T14:05:30.967Z,102414.47
2022-12-18T14:08:07.113Z,102414.13
2022-12-18T14:10:49.234Z,102414.62
2022-12-18T14:13:22.595Z,102410.66
2022-12-18T14:15:50.108Z,102407.84
2022-12-18T14:18:24.693Z,102415.34
2022-12-18T14:20:54.114Z,102405.63
2022-12-18T14:23:41.496Z,102417.22
2022-12-18T14:26:28.962Z,102414.53
2022-12-18T14:29:02.135Z,102411.59
2022-12-18T14:31:31.425Z,102413.00
2022-12-18T14:33:58.261Z,102404.44
2022-12-18T14:36:27.423Z,102410.41
2022-12-18T14:38:58.803Z,102407.59
2022-12-18T14:41:26.714Z,102415.69
2022-12-18T14:43:54.969Z,102422.59
2022-12-18T14:46:33.956Z,102425.34
2022-12-18T14:49:03.835Z,102430.63
2022-12-18T14:51:34.125Z,102435.59
2022-12-18T14:54:09.179Z,102443.28
2022-12-18T14:56:43.399Z,102442.09
2022-12-18T14:59:25.040Z,102450.37
2022-12-18T15:01:54.920Z,102454.88
2022-12-18T15:04:25.682Z,102456.19
2022-12-18T15:07:03.720Z,102457.84
2022-12-18T15:09:30.352Z,102455.53
2022-12-18T15:12:01.681Z,102460.22
2022-12-18T15:14:33.609Z,102459.94
2022-12-18T15:17:02.876Z,102474.59
2022-12-18T15:19:50.963Z,102469.53
2022-12-18T15:22:34.642Z,102476.50
2022-12-18T15:25:01.866Z,102476.47
2022-12-18T15:27:40.311Z,102480.19
2022-12-18T15:30:12.914Z,102477.69
2022-12-18T15:32:43.813Z,102493.09
2022-12-18T15:35:25.275Z,102495.59
2022-12-18T15:37:53.325Z,102491.69
2022-12-18T15:40:23.829Z,102499.06
2022-12-18T15:43:13.701Z,102499.06
2022-12-18T15:45:40.470Z,102496.25
2022-12-18T15:48:22.166Z,102499.38
2022-12-18T15:50:51.055Z,102504.47
2022-12-18T15:53:18.623Z,102508.50
2022-12-18T15:56:04.204Z,102514.66
2022-12-18T15:58:31.501Z,102527.28
2022-12-18T16:01:00.568Z,102530.78
2022-12-18T16:03:27.378Z,102524.13
2022-12-18T16:05:56.876Z,102535.69
2022-12-18T16:08:24.972Z,102536.19
2022-12-18T16:10:51.701Z,102540.91
2022-12-18T16:13:21.174Z,102537.09
2022-12-18T16:15:48.189Z,102543.00
2022-12-18T16:18:14.821Z,102538.78
2022-12-18T16:20:41.701Z,102548.94
2022-12-18T16:23:08.412Z,102545.09
2022-12-18T16:25:35.068Z,102538.00
2022-12-18T16:28:03.968Z,102548.87
2022-12-18T16:30:34.307Z,102548.63
2022-12-18T16:33:05.127Z,102557.50
2022-12-18T16:35:31.833Z,102566.88
2022-12-18T16:37:58.421Z,102573.44
2022-12-18T16:40:25.672Z,102572.59
2022-12-18T16:42:52.254Z,102568.38
2022-12-18T16:45:19.533Z,102577.06
2022-12-18T16:47:46.323Z,102568.38
2022-12-18T16:50:13.079Z,102571.66
2022-12-18T16:52:40.131Z,102571.84
2022-12-18T16:55:10.114Z,102577.41
2022-12-18T16:57:38.924Z,102583.63
2022-12-18T17:00:06.374Z,102593.03
2022-12-18T17:02:33.610Z,102580.78
2022-12-18T17:05:00.642Z,102584.34
2022-12-18T17:07:28.377Z,102576.44
2022-12-18T17:09:55.684Z,102582.97
2022-12-18T17:12:22.442Z,102582.97
2022-12-18T17:14:49.245Z,102577.81
2022-12-18T17:17:23.905Z,102564.22
2022-12-18T17:19:52.436Z,102562.31
2022-12-18T17:22:20.271Z,102559.91
2022-12-18T17:24:47.354Z,102559.13
2022-12-18T17:27:14.454Z,102558.72
2022-12-18T17:29:47.389Z,102552.16
2022-12-18T17:32:16.242Z,102557.28
2022-12-18T17:34:42.837Z,102573.63
2022-12-18T17:37:09.660Z,102567.16
2022-12-18T17:39:39.362Z,102566.66
2022-12-18T17:42:06.794Z,102567.47
2022-12-18T17:44:34.470Z,102567.88
2022-12-18T17:47:01.418Z,102566.47
2022-12-18T17:49:28.433Z,102564.50
2022-12-18T17:51:55.027Z,102567.94
2022-12-18T17:54:21.580Z,102573.44
2022-12-18T17:56:48.164Z,102579.66
2022-12-18T17:59:14.788Z,102579.53
2022-12-18T18:01:44.749Z,102584.03
2022-12-18T18:04:13.624Z,102577.44
2022-12-18T18:06:40.649Z,102572.75
2022-12-18T18:09:08.218Z,102571.16
2022-12-18T18:12:01.595Z,102576.69
2022-12-18T18:14:31.020Z,102569.06
2022-12-18T18:17:00.766Z,102568.72
2022-12-18T18:19:32.878Z,102564.38
2022-12-18T18:22:30.944Z,102575.91
2022-12-18T18:24:48.654Z,102579.69
2022-12-18T18:27:15.406Z,102572.59
2022-12-18T18:29:42.028Z,102579.81
2022-12-18T18:32:08.654Z,102583.44
2022-12-18T18:34:35.408Z,102581.53
2022-12-18T18:37:02.817Z,102579.03
2022-12-18T18:39:31.872Z,102570.59
2022-12-18T18:41:59.383Z,102578.34
2022-12-18T18:44:26.535Z,102579.03
2022-12-18T18:46:57.678Z,102587.38
2022-12-18T18:49:27.550Z,102593.22
2022-12-18T18:51:55.504Z,102589.78
2022-12-18T18:54:24.289Z,102602.03
2022-12-18T18:59:38.153Z,102591.38
2022-12-18T19:02:05.163Z,102604.03
2022-12-18T19:04:33.601Z,102610.06
2022-12-18T19:07:00.402Z,102615.88
2022-12-18T19:09:27.747Z,102617.94
2022-12-18T19:12:14.404Z,102614.34
2022-12-18T19:14:41.185Z,102617.81
2022-12-18T19:17:08.131Z,102619.47
2022-12-18T19:19:36.694Z,102629.16
2022-12-18T19:22:03.566Z,102624.19
2022-12-18T19:24:30.218Z,102623.31
2022-12-18T19:26:58.127Z,102625.00
2022-12-18T19:29:25.070Z,102627.03
2022-12-18T19:31:51.897Z,102629.00
2022-12-18T19:34:18.535Z,102644.72
2022-12-18T19:36:45.124Z,102639.38
2022-12-18T19:39:16.577Z,102638.97
2022-12-18T19:41:45.877Z,102652.38
2022-12-18T19:44:14.756Z,102658.81
2022-12-18T19:46:42.907Z,102656.50
2022-12-18T19:49:10.876Z,102656.56
2022-12-18T19:51:38.365Z,102663.84
2022-12-18T19:54:05.536Z,102658.00
2022-12-18T19:56:34.611Z,102658.50
2022-12-18T19:59:02.339Z,102665.41
2022-12-18T20:01:30.537Z,102662.06
2022-12-18T20:03:58.879Z,102660.31
2022-12-18T20:06:28.088Z,102670.91
2022-12-18T20:09:00.475Z,102673.59
2022-12-18T20:11:31.594Z,102664.16
2022-12-18T20:13:58.578Z,102665.38
2022-12-18T20:16:25.267Z,102666.41
2022-12-18T20:20:45.824Z,102672.00
2022-12-18T20:21:39.053Z,102667.66
2022-12-18T20:24:08.695Z,102675.47
2022-12-18T20:26:35.496Z,102684.25
2022-12-18T20:29:02.063Z,102670.78
2022-12-18T20:31:28.777Z,102672.44
2022-12-18T20:34:01.587Z,102679.81
2022-12-18T20:36:30.617Z,102683.44
2022-12-18T20:38:59.127Z,102682.12
2022-12-18T20:41:31.673Z,102688.53
2022-12-18T20:44:04.723Z,102677.94
2022-12-18T20:46:31.340Z,102675.09
2022-12-18T20:48:57.933Z,102692.03
2022-12-18T20:51:24.734Z,102687.41
2022-12-18T20:53:52.685Z,102686.94
2022-12-18T20:56:22.306Z,102683.53
2022-12-18T20:58:53.611Z,102685.81
2022-12-18T21:01:23.606Z,102694.63
2022-12-18T21:03:51.095Z,102697.94
2022-12-18T21:06:20.691Z,102692.88
2022-12-18T21:08:47.918Z,102704.91
2022-12-18T21:11:39.025Z,102698.47
2022-12-18T21:14:17.977Z,102703.81
2022-12-18T21:16:45.327Z,102706.28
2022-12-18T21:19:13.904Z,102709.16
2022-12-18T21:21:41.747Z,102715.56
2022-12-18T21:24:09.851Z,102711.00
2022-12-18T21:26:41.856Z,102708.47
2022-12-18T21:29:17.532Z,102703.38
2022-12-18T21:31:45.431Z,102706.06
2022-12-18T21:34:20.938Z,102704.09
2022-12-18T21:36:48.322Z,102711.50
2022-12-18T21:39:15.421Z,102700.53
2022-12-18T21:42:01.046Z,102697.25
2022-12-18T21:44:27.859Z,102696.88
2022-12-18T21:46:58.332Z,102683.69
2022-12-18T21:49:30.230Z,102691.28
2022-12-18T21:51:58.201Z,102704.31
2022-12-18T21:54:26.504Z,102693.19
2022-12-18T21:56:57.143Z,102678.81
2022-12-18T21:59:38.467Z,102685.25
2022-12-18T22:02:12.529Z,102686.09
2022-12-18T22:04:39.722Z,102685.84
2022-12-18T22:07:06.828Z,102685.69
2022-12-18T22:09:34.189Z,102679.75
2022-12-18T22:12:00.872Z,102677.25
2022-12-18T22:14:27.905Z,102680.56
2022-12-18T22:16:57.281Z,102674.34
2022-12-18T22:19:27.234Z,102681.66
2022-12-18T22:21:54.436Z,102679.91
2022-12-18T22:24:26.466Z,102683.41
2022-12-18T22:26:57.294Z,102685.97
2022-12-18T22:29:47.548Z,102675.59
2022-12-18T22:32:16.990Z,102681.72
2022-12-18T22:34:55.536Z,102690.50
2022-12-18T22:37:22.571Z,102691.50
2022-12-18T22:39:49.105Z,102686.09
2022-12-18T22:42:15.684Z,102688.78
2022-12-18T22:44:42.238Z,102692.91
2022-12-18T22:47:10.188Z,102689.91
2022-12-18T22:49:37.566Z,102707.38
2022-12-18T22:52:07.249Z,102699.56
2022-12-18T22:54:33.920Z,102704.53
2022-12-18T22:57:00.633Z,102700.97
2022-12-18T22:59:27.219Z,102699.28
2022-12-18T23:01:58.668Z,102699.97
2022-12-18T23:04:35.873Z,102705.44
2022-12-18T23:07:04.020Z,102699.84
2022-12-18T23:09:30.618Z,102704.97
2022-12-18T23:11:57.673Z,102713.25
2022-12-18T23:14:24.276Z,102710.47
2022-12-18T23:16:52.263Z,102713.34
2022-12-18T23:19:20.211Z,102711.63
2022-12-18T23:21:47.394Z,102706.19
2022-12-18T23:24:14.159Z,102704.25
2022-12-18T23:26:40.855Z,102703.75
2022-12-18T23:29:07.726Z,102711.25
2022-12-18T23:31:36.844Z,102713.72
2022-12-18T23:34:05.513Z,102712.28
2022-12-18T23:36:42.051Z,102703.75
2022-12-18T23:39:29.018Z,102709.19
2022-12-18T23:42:03.236Z,102703.91
2022-12-18T23:44:29.834Z,102699.81
2022-12-18T23:46:56.487Z,102706.34
2022-12-18T23:49:23.442Z,102711.22
2022-12-18T23:51:50.435Z,102703.06
2022-12-18T23:54:17.481Z,102711.63
2022-12-18T23:56:49.232Z,102710.06
2022-12-18T23:59:15.841Z,102710.59
